createdAt,value
2017-04-01T00:00:29.831Z,31
2017-04-01T00:01:31.584Z,31
2017-04-01T00:02:30.250Z,31
2017-04-01T00:03:30.149Z,31
2017-04-01T00:04:30.102Z,31
2017-04-01T00:05:30.290Z,31
2017-04-01T00:06:31.860Z,31
2017-04-01T00:07:31.946Z,31
2017-04-01T00:08:30.775Z,31
2017-04-01T00:09:30.526Z,31
2017-04-01T00:10:30.556Z,31
2017-04-01T00:11:30.597Z,31
2017-04-01T00:12:30.671Z,31
2017-04-01T00:13:32.217Z,31
2017-04-01T00:14:32.581Z,31
2017-04-01T00:15:32.320Z,31
2017-04-01T00:16:32.545Z,31
2017-04-01T00:17:30.941Z,31
2017-04-01T00:18:32.480Z,31
2017-04-01T00:19:32.569Z,31
2017-04-01T00:20:31.249Z,31
2017-04-01T00:21:32.627Z,31
2017-04-01T00:22:32.583Z,31
2017-04-01T00:23:32.642Z,31
2017-04-01T00:24:32.726Z,31
2017-04-01T00:25:31.127Z,31
2017-04-01T00:26:31.603Z,30.9
2017-04-01T00:27:31.405Z,31
2017-04-01T00:28:31.328Z,31
2017-04-01T00:29:33.052Z,31
2017-04-01T00:30:31.610Z,31
2017-04-01T00:31:33.249Z,31
2017-04-01T00:32:31.851Z,31
2017-04-01T00:33:33.352Z,31
2017-04-01T00:34:31.789Z,31
2017-04-01T00:35:31.706Z,31
2017-04-01T00:36:31.730Z,31
2017-04-01T00:37:33.355Z,31
2017-04-01T00:38:32.196Z,31
2017-04-01T00:39:33.596Z,31
2017-04-01T00:40:32.566Z,31
2017-04-01T00:41:31.982Z,31
2017-04-01T00:42:32.109Z,30.9
2017-04-01T00:43:32.193Z,31
2017-04-01T00:44:33.943Z,31
2017-04-01T00:45:32.050Z,30.9
2017-04-01T00:46:32.114Z,30.9
2017-04-01T00:47:33.877Z,30.9
2017-04-01T00:48:32.198Z,30.9
2017-04-01T00:49:32.195Z,30.9
2017-04-01T00:50:32.677Z,30.9
2017-04-01T00:51:33.923Z,30.9
2017-04-01T00:52:32.437Z,30.9
2017-04-01T00:53:34.129Z,30.9
2017-04-01T00:54:34.105Z,30.9
2017-04-01T00:55:34.212Z,30.9
2017-04-01T00:56:32.934Z,30.9
2017-04-01T00:57:34.269Z,30.9
2017-04-01T00:58:34.291Z,30.9
2017-04-01T00:59:32.651Z,30.9
2017-04-01T01:00:32.622Z,30.9
2017-04-01T01:01:34.389Z,30.9
2017-04-01T01:02:33.165Z,30.9
2017-04-01T01:03:34.394Z,30.9
2017-04-01T01:04:32.957Z,30.9
2017-04-01T01:05:34.616Z,30.9
2017-04-01T01:06:32.985Z,30.9
2017-04-01T01:07:32.951Z,30.9
2017-04-01T01:08:33.336Z,30.9
2017-04-01T01:09:34.882Z,30.9
2017-04-01T01:10:33.316Z,30.9
2017-04-01T01:11:33.240Z,30.8
2017-04-01T01:12:33.248Z,30.8
2017-04-01T01:13:34.901Z,30.9
2017-04-01T01:14:33.775Z,30.9
2017-04-01T01:15:33.478Z,30.9
2017-04-01T01:16:36.460Z,30.8
2017-04-01T01:17:35.324Z,30.9
2017-04-01T01:18:33.760Z,30.9
2017-04-01T01:19:35.278Z,30.9
2017-04-01T01:20:35.538Z,30.9
2017-04-01T01:21:35.323Z,30.8
2017-04-01T01:22:35.400Z,30.9
2017-04-01T01:23:35.640Z,30.9
2017-04-01T01:24:35.572Z,30.9
2017-04-01T01:25:34.122Z,30.8
2017-04-01T01:26:34.466Z,30.9
2017-04-01T01:27:34.154Z,30.9
2017-04-01T01:28:35.881Z,30.9
2017-04-01T01:29:34.419Z,30.9
2017-04-01T01:30:34.431Z,30.9
2017-04-01T01:31:34.406Z,30.9
2017-04-01T01:32:34.942Z,30.8
2017-04-01T01:33:34.526Z,30.8
2017-04-01T01:34:36.220Z,30.8
2017-04-01T01:35:34.634Z,30.8
2017-04-01T01:36:36.315Z,30.8
2017-04-01T01:37:34.733Z,30.8
2017-04-01T01:38:35.277Z,30.8
2017-04-01T01:39:36.579Z,30.8
2017-04-01T01:40:35.042Z,30.8
2017-04-01T01:41:36.610Z,30.8
2017-04-01T01:42:35.164Z,30.8
2017-04-01T01:43:36.715Z,30.8
2017-04-01T01:44:35.324Z,30.8
2017-04-01T01:45:36.689Z,30.8
2017-04-01T01:46:36.824Z,30.8
2017-04-01T01:47:35.240Z,30.8
2017-04-01T01:48:36.874Z,30.8
2017-04-01T01:49:36.954Z,30.8
2017-04-01T01:50:37.393Z,30.8
2017-04-01T01:51:35.650Z,30.8
2017-04-01T01:52:35.775Z,30.8
2017-04-01T01:53:35.724Z,30.8
2017-04-01T01:54:35.715Z,30.8
2017-04-01T01:55:37.447Z,30.8
2017-04-01T01:56:36.086Z,30.8
2017-04-01T01:57:35.724Z,30.8
2017-04-01T01:58:35.780Z,30.8
2017-04-01T01:59:35.896Z,30.8
2017-04-01T02:00:36.001Z,30.8
2017-04-01T02:01:37.533Z,30.8
2017-04-01T02:02:37.868Z,30.8
2017-04-01T02:03:37.730Z,30.8
2017-04-01T02:04:36.173Z,30.8
2017-04-01T02:05:37.941Z,30.8
2017-04-01T02:06:37.883Z,30.8
2017-04-01T02:07:37.968Z,30.8
2017-04-01T02:08:36.595Z,30.8
2017-04-01T02:09:38.052Z,30.8
2017-04-01T02:10:36.492Z,30.8
2017-04-01T02:11:38.110Z,30.8
2017-04-01T02:12:36.682Z,30.8
2017-04-01T02:13:38.188Z,30.8
2017-04-01T02:14:38.569Z,30.8
2017-04-01T02:15:36.774Z,30.8
2017-04-01T02:16:36.731Z,30.7
2017-04-01T02:17:38.388Z,30.8
2017-04-01T02:18:36.834Z,30.8
2017-04-01T02:19:36.763Z,30.8
2017-04-01T02:20:38.774Z,30.8
2017-04-01T02:21:36.938Z,30.8
2017-04-01T02:22:37.096Z,30.8
2017-04-01T02:23:37.133Z,30.8
2017-04-01T02:24:38.669Z,30.8
2017-04-01T02:25:38.798Z,30.8
2017-04-01T02:26:39.110Z,30.8
2017-04-01T02:27:37.438Z,30.8
2017-04-01T02:28:39.113Z,30.7
2017-04-01T02:29:37.621Z,30.8
2017-04-01T02:30:39.098Z,30.8
2017-04-01T02:31:39.158Z,30.8
2017-04-01T02:32:39.494Z,30.8
2017-04-01T02:33:39.242Z,30.7
2017-04-01T02:34:37.658Z,30.7
2017-04-01T02:35:37.719Z,30.7
2017-04-01T02:36:39.485Z,30.7
2017-04-01T02:37:37.919Z,30.7
2017-04-01T02:38:38.243Z,30.7
2017-04-01T02:39:37.902Z,30.7
2017-04-01T02:40:37.897Z,30.7
2017-04-01T02:41:39.671Z,30.7
2017-04-01T02:42:38.149Z,30.7
2017-04-01T02:43:38.132Z,30.7
2017-04-01T02:44:38.446Z,30.7
2017-04-01T02:45:38.148Z,30.7
2017-04-01T02:46:39.803Z,30.7
2017-04-01T02:47:38.225Z,30.7
2017-04-01T02:48:38.227Z,30.7
2017-04-01T02:49:38.308Z,30.7
2017-04-01T02:50:38.763Z,30.7
2017-04-01T02:51:38.510Z,30.7
2017-04-01T02:52:38.555Z,30.7
2017-04-01T02:53:38.441Z,30.7
2017-04-01T02:54:40.178Z,30.7
2017-04-01T02:55:38.761Z,30.7
2017-04-01T02:56:38.933Z,30.7
2017-04-01T02:57:38.711Z,30.7
2017-04-01T02:58:38.761Z,30.7
2017-04-01T02:59:38.808Z,30.7
2017-04-01T03:00:40.497Z,30.7
2017-04-01T03:01:38.954Z,30.7
2017-04-01T03:02:40.898Z,30.7
2017-04-01T03:03:39.065Z,30.7
2017-04-01T03:04:39.212Z,30.7
2017-04-01T03:05:40.714Z,30.7
2017-04-01T03:06:40.822Z,30.7
2017-04-01T03:07:39.335Z,30.7
2017-04-01T03:08:39.744Z,30.7
2017-04-01T03:09:39.254Z,30.7
2017-04-01T03:10:39.441Z,30.6
2017-04-01T03:11:39.342Z,30.6
2017-04-01T03:12:39.549Z,30.7
2017-04-01T03:13:41.137Z,30.7
2017-04-01T03:14:39.788Z,30.7
2017-04-01T03:15:41.204Z,30.7
2017-04-01T03:16:39.752Z,30.7
2017-04-01T03:17:41.451Z,30.7
2017-04-01T03:18:39.751Z,30.7
2017-04-01T03:19:39.809Z,30.6
2017-04-01T03:20:41.929Z,30.6
2017-04-01T03:21:39.949Z,30.6
2017-04-01T03:22:41.660Z,30.6
2017-04-01T03:23:41.772Z,30.6
2017-04-01T03:24:40.263Z,30.6
2017-04-01T03:25:41.860Z,30.6
2017-04-01T03:26:40.524Z,30.6
2017-04-01T03:27:42.005Z,30.6
2017-04-01T03:28:40.336Z,30.6
2017-04-01T03:29:42.063Z,30.6
2017-04-01T03:30:40.563Z,30.6
2017-04-01T03:31:42.159Z,30.6
2017-04-01T03:32:40.738Z,30.6
2017-04-01T03:33:42.144Z,30.6
2017-04-01T03:34:40.803Z,30.6
2017-04-01T03:35:42.220Z,30.6
2017-04-01T03:36:40.733Z,30.6
2017-04-01T03:37:40.842Z,30.6
2017-04-01T03:38:41.099Z,30.6
2017-04-01T03:39:42.389Z,30.6
2017-04-01T03:40:42.589Z,30.6
2017-04-01T03:41:42.595Z,30.6
2017-04-01T03:42:42.616Z,30.6
2017-04-01T03:43:42.754Z,30.6
2017-04-01T03:44:43.012Z,30.6
2017-04-01T03:45:42.762Z,30.6
2017-04-01T03:46:41.303Z,30.6
2017-04-01T03:47:42.903Z,30.6
2017-04-01T03:48:41.310Z,30.6
2017-04-01T03:49:43.079Z,30.6
2017-04-01T03:50:41.574Z,30.6
2017-04-01T03:51:43.228Z,30.6
2017-04-01T03:52:43.148Z,30.6
2017-04-01T03:53:41.458Z,30.6
2017-04-01T03:54:43.169Z,30.6
2017-04-01T03:55:43.251Z,30.5
2017-04-01T03:56:43.433Z,30.6
2017-04-01T03:57:43.355Z,30.5
2017-04-01T03:58:43.458Z,30.5
2017-04-01T03:59:43.424Z,30.5
2017-04-01T04:00:43.456Z,30.5
2017-04-01T04:01:42.155Z,30.5
2017-04-01T04:02:41.963Z,30.6
2017-04-01T04:03:41.886Z,30.6
2017-04-01T04:04:43.583Z,30.6
2017-04-01T04:05:43.564Z,30.6
2017-04-01T04:06:42.021Z,30.6
2017-04-01T04:07:43.872Z,30.6
2017-04-01T04:08:42.067Z,30.6
2017-04-01T04:09:43.737Z,30.6
2017-04-01T04:10:43.751Z,30.6
2017-04-01T04:11:43.845Z,30.6
2017-04-01T04:12:42.256Z,30.6
2017-04-01T04:13:44.173Z,30.6
2017-04-01T04:15:53.795Z,30.5
2017-04-01T04:16:55.401Z,30.5
2017-04-01T04:17:53.905Z,30.5
2017-04-01T04:18:55.672Z,30.5
2017-04-01T04:19:53.894Z,30.5
2017-04-01T04:20:55.556Z,30.5
2017-04-01T04:21:54.013Z,30.5
2017-04-01T04:22:55.601Z,30.5
2017-04-01T04:23:54.128Z,30.5
2017-04-01T04:24:55.784Z,30.5
2017-04-01T04:25:54.099Z,30.5
2017-04-01T04:26:54.267Z,30.5
2017-04-01T04:27:55.794Z,30.5
2017-04-01T04:28:55.799Z,30.5
2017-04-01T04:29:55.925Z,30.5
2017-04-01T04:30:56.161Z,30.5
2017-04-01T04:31:54.453Z,30.5
2017-04-01T04:32:55.953Z,30.5
2017-04-01T04:33:54.554Z,30.5
2017-04-01T04:34:54.647Z,30.5
2017-04-01T04:35:56.166Z,30.5
2017-04-01T04:36:56.480Z,30.5
2017-04-01T04:37:54.673Z,30.5
2017-04-01T04:38:54.662Z,30.5
2017-04-01T04:39:56.235Z,30.5
2017-04-01T04:40:56.412Z,30.5
2017-04-01T04:41:56.441Z,30.5
2017-04-01T04:42:55.131Z,30.5
2017-04-01T04:43:54.898Z,30.5
2017-04-01T04:44:55.081Z,30.5
2017-04-01T04:45:56.702Z,30.5
2017-04-01T04:46:56.733Z,30.5
2017-04-01T04:47:55.130Z,30.5
2017-04-01T04:48:57.058Z,30.5
2017-04-01T04:49:55.076Z,30.5
2017-04-01T04:50:55.309Z,30.5
2017-04-01T04:51:55.129Z,30.5
2017-04-01T04:52:55.219Z,30.5
2017-04-01T04:53:55.410Z,30.5
2017-04-01T04:54:57.079Z,30.5
2017-04-01T04:55:55.461Z,30.5
2017-04-01T04:56:55.465Z,30.5
2017-04-01T04:57:57.169Z,30.5
2017-04-01T04:58:55.595Z,30.5
2017-04-01T04:59:55.497Z,30.5
2017-04-01T05:00:57.491Z,30.5
2017-04-01T05:01:57.264Z,30.5
2017-04-01T05:02:55.808Z,30.5
2017-04-01T05:03:57.371Z,30.5
2017-04-01T05:04:57.593Z,30.5
2017-04-01T05:05:57.751Z,30.4
2017-04-01T05:06:55.972Z,30.5
2017-04-01T05:07:56.026Z,30.5
2017-04-01T05:08:56.005Z,30.5
2017-04-01T05:09:56.066Z,30.5
2017-04-01T05:10:57.861Z,30.5
2017-04-01T05:11:57.914Z,30.5
2017-04-01T05:12:56.420Z,30.5
2017-04-01T05:13:58.042Z,30.5
2017-04-01T05:14:56.371Z,30.4
2017-04-01T05:15:56.530Z,30.4
2017-04-01T05:16:56.602Z,30.5
2017-04-01T05:17:56.620Z,30.5
2017-04-01T05:18:56.710Z,30.5
2017-04-01T05:19:56.576Z,30.5
2017-04-01T05:20:56.714Z,30.4
2017-04-01T05:21:58.288Z,30.5
2017-04-01T05:22:56.713Z,30.5
2017-04-01T05:23:58.520Z,30.5
2017-04-01T05:24:56.887Z,30.5
2017-04-01T05:25:57.602Z,30.5
2017-04-01T05:26:58.543Z,30.5
2017-04-01T05:27:58.631Z,30.5
2017-04-01T05:28:57.180Z,30.5
2017-04-01T05:29:57.083Z,30.5
2017-04-01T05:30:57.226Z,30.5
2017-04-01T05:31:57.152Z,30.5
2017-04-01T05:32:58.857Z,30.5
2017-04-01T05:33:58.910Z,30.5
2017-04-01T05:34:58.985Z,30.5
2017-04-01T05:35:59.086Z,30.5
2017-04-01T05:36:59.112Z,30.5
2017-04-01T05:37:57.447Z,30.5
2017-04-01T05:38:59.218Z,30.5
2017-04-01T05:39:59.176Z,30.5
2017-04-01T05:40:57.626Z,30.5
2017-04-01T05:41:59.317Z,30.5
2017-04-01T05:42:57.751Z,30.5
2017-04-01T05:43:57.728Z,30.6
2017-04-01T05:44:59.420Z,30.6
2017-04-01T05:45:57.878Z,30.6
2017-04-01T05:46:59.521Z,30.6
2017-04-01T05:47:59.523Z,30.6
2017-04-01T05:48:57.919Z,30.6
2017-04-01T05:49:58.028Z,30.6
2017-04-01T05:50:59.660Z,30.6
2017-04-01T05:51:59.839Z,30.6
2017-04-01T05:52:58.183Z,30.6
2017-04-01T05:53:59.988Z,30.6
2017-04-01T05:54:59.974Z,30.6
2017-04-01T05:56:00.075Z,30.6
2017-04-01T05:56:58.527Z,30.6
2017-04-01T05:57:58.535Z,30.6
2017-04-01T05:59:00.108Z,30.6
2017-04-01T06:00:00.221Z,30.6
2017-04-01T06:00:58.666Z,30.7
2017-04-01T06:02:00.261Z,30.7
2017-04-01T06:02:58.719Z,30.7
2017-04-01T06:04:00.310Z,30.6
2017-04-01T06:05:00.348Z,30.6
2017-04-01T06:05:58.968Z,30.7
2017-04-01T06:06:58.860Z,30.7
2017-04-01T06:08:00.438Z,30.7
2017-04-01T06:09:00.595Z,30.6
2017-04-01T06:09:58.932Z,30.7
2017-04-01T06:11:00.702Z,30.7
2017-04-01T06:11:59.172Z,30.7
2017-04-01T06:12:59.101Z,30.7
2017-04-01T06:13:59.171Z,30.7
2017-04-01T06:14:59.352Z,30.7
2017-04-01T06:15:59.287Z,30.7
2017-04-01T06:16:59.505Z,30.7
2017-04-01T06:17:59.561Z,30.7
2017-04-01T06:18:59.502Z,30.7
2017-04-01T06:19:59.601Z,30.7
2017-04-01T06:20:59.723Z,30.7
2017-04-01T06:21:59.683Z,30.7
2017-04-01T06:23:01.427Z,30.8
2017-04-01T06:23:59.771Z,30.8
2017-04-01T06:25:01.411Z,30.8
2017-04-01T06:25:59.837Z,30.8
2017-04-01T06:27:01.522Z,30.7
2017-04-01T06:27:59.972Z,30.8
2017-04-01T06:29:01.606Z,30.8
2017-04-01T06:30:00.065Z,30.8
2017-04-01T06:31:01.671Z,30.8
2017-04-01T06:32:01.691Z,30.8
2017-04-01T06:33:01.792Z,30.8
2017-04-01T06:34:01.860Z,30.9
2017-04-01T06:35:00.347Z,30.9
2017-04-01T06:36:01.875Z,30.9
2017-04-01T06:37:00.301Z,30.9
2017-04-01T06:38:00.328Z,31
2017-04-01T06:39:00.555Z,31
2017-04-01T06:40:00.630Z,31
2017-04-01T06:41:00.614Z,31
2017-04-01T06:42:02.180Z,31
2017-04-01T06:43:00.778Z,31
2017-04-01T06:44:00.805Z,31
2017-04-01T06:45:00.922Z,31.1
2017-04-01T06:46:02.518Z,31.1
2017-04-01T06:47:02.457Z,31.1
2017-04-01T06:48:02.736Z,31.1
2017-04-01T06:49:02.572Z,31.2
2017-04-01T06:50:02.712Z,31.2
2017-04-01T06:51:02.752Z,31.2
2017-04-01T06:52:01.071Z,31.2
2017-04-01T06:53:02.784Z,31.2
2017-04-01T06:54:01.294Z,31.2
2017-04-01T06:55:02.792Z,31.2
2017-04-01T06:56:01.340Z,31.2
2017-04-01T06:57:01.277Z,31.2
2017-04-01T06:58:03.072Z,31.3
2017-04-01T06:59:01.483Z,31.2
2017-04-01T07:00:01.776Z,31.2
2017-04-01T07:01:03.100Z,31.2
2017-04-01T07:02:03.250Z,31.2
2017-04-01T07:03:01.709Z,31.2
2017-04-01T07:04:03.312Z,31.2
2017-04-01T07:05:01.972Z,31.2
2017-04-01T07:06:03.776Z,31.2
2017-04-01T07:07:03.601Z,31.2
2017-04-01T07:08:03.565Z,31.2
2017-04-01T07:09:01.987Z,31.2
2017-04-01T07:10:02.009Z,31.2
2017-04-01T07:11:03.797Z,31.2
2017-04-01T07:12:02.390Z,31.2
2017-04-01T07:13:02.122Z,31.2
2017-04-01T07:14:02.316Z,31.2
2017-04-01T07:15:03.940Z,31.3
2017-04-01T07:16:03.934Z,31.3
2017-04-01T07:17:03.927Z,31.3
2017-04-01T07:18:04.322Z,31.4
2017-04-01T07:19:04.146Z,31.4
2017-04-01T07:20:02.525Z,31.4
2017-04-01T07:21:02.659Z,31.5
2017-04-01T07:22:02.576Z,31.4
2017-04-01T07:23:02.851Z,31.5
2017-04-01T07:24:04.590Z,31.5
2017-04-01T07:25:02.888Z,31.5
2017-04-01T07:26:04.549Z,31.5
2017-04-01T07:27:04.612Z,31.5
2017-04-01T07:28:04.590Z,31.5
2017-04-01T07:29:04.649Z,31.5
2017-04-01T07:30:04.860Z,31.5
2017-04-01T07:31:04.846Z,31.4
2017-04-01T07:32:03.117Z,31.4
2017-04-01T07:33:03.187Z,31.4
2017-04-01T07:34:04.807Z,31.4
2017-04-01T07:35:04.868Z,31.4
2017-04-01T07:36:05.184Z,31.4
2017-04-01T07:37:04.998Z,31.4
2017-04-01T07:38:05.086Z,31.4
2017-04-01T07:39:03.606Z,31.4
2017-04-01T07:40:03.589Z,31.4
2017-04-01T07:41:05.113Z,31.4
2017-04-01T07:42:03.866Z,31.4
2017-04-01T07:43:05.220Z,31.5
2017-04-01T07:44:03.644Z,31.5
2017-04-01T07:45:03.861Z,31.5
2017-04-01T07:46:05.495Z,31.5
2017-04-01T07:47:04.042Z,31.5
2017-04-01T07:48:05.673Z,31.6
2017-04-01T07:49:05.534Z,31.6
2017-04-01T07:50:04.535Z,31.7
2017-04-01T07:51:05.520Z,31.7
2017-04-01T07:52:05.509Z,31.7
2017-04-01T07:53:05.681Z,31.8
2017-04-01T07:54:04.384Z,31.8
2017-04-01T07:55:04.132Z,31.8
2017-04-01T07:56:05.827Z,31.8
2017-04-01T07:57:05.846Z,31.7
2017-04-01T07:58:04.193Z,31.7
2017-04-01T07:59:05.935Z,31.7
2017-04-01T08:00:06.074Z,31.7
2017-04-01T08:01:06.000Z,31.8
2017-04-01T08:02:05.973Z,31.8
2017-04-01T08:03:04.443Z,31.8
2017-04-01T08:04:04.633Z,31.8
2017-04-01T08:05:06.272Z,31.9
2017-04-01T08:06:06.249Z,31.9
2017-04-01T08:07:06.199Z,31.9
2017-04-01T08:08:06.371Z,31.9
2017-04-01T08:09:09.344Z,32
2017-04-01T08:10:07.245Z,32
2017-04-01T08:11:04.840Z,32
2017-04-01T08:12:06.801Z,32.1
2017-04-01T08:13:05.195Z,32.1
2017-04-01T08:14:05.253Z,32.2
2017-04-01T08:15:06.847Z,32.2
2017-04-01T08:16:05.182Z,32.2
2017-04-01T08:17:06.943Z,32.2
2017-04-01T08:18:06.295Z,32.1
2017-04-01T08:19:06.884Z,32.1
2017-04-01T08:20:06.977Z,32.1
2017-04-01T08:21:05.427Z,32.2
2017-04-01T08:22:07.068Z,32.2
2017-04-01T08:23:08.181Z,32.3
2017-04-01T08:24:07.369Z,32.3
2017-04-01T08:25:05.625Z,32.4
2017-04-01T08:26:05.696Z,32.4
2017-04-01T08:27:05.690Z,32.5
2017-04-01T08:28:07.274Z,32.6
2017-04-01T08:29:07.365Z,32.7
2017-04-01T08:30:06.156Z,32.8
2017-04-01T08:31:05.797Z,32.9
2017-04-01T08:32:08.134Z,32.9
2017-04-01T08:33:08.061Z,32.9
2017-04-01T08:34:06.716Z,32.9
2017-04-01T08:35:06.018Z,32.9
2017-04-01T08:36:06.136Z,32.9
2017-04-01T08:37:06.013Z,32.8
2017-04-01T08:38:06.764Z,32.8
2017-04-01T08:39:07.668Z,32.7
2017-04-01T08:40:07.782Z,32.7
2017-04-01T08:41:06.381Z,32.6
2017-04-01T08:42:08.226Z,32.6
2017-04-01T08:43:08.027Z,32.5
2017-04-01T08:44:08.092Z,32.5
2017-04-01T08:45:08.240Z,32.4
2017-04-01T08:46:08.312Z,32.4
2017-04-01T08:47:08.361Z,32.4
2017-04-01T08:48:06.956Z,32.4
2017-04-01T08:49:08.337Z,32.3
2017-04-01T08:50:08.359Z,32.3
2017-04-01T08:51:06.949Z,32.3
2017-04-01T08:52:08.587Z,32.3
2017-04-01T08:53:06.876Z,32.3
2017-04-01T08:54:08.680Z,32.4
2017-04-01T08:55:06.916Z,32.5
2017-04-01T08:56:06.969Z,32.6
2017-04-01T08:57:08.756Z,32.6
2017-04-01T08:58:08.678Z,32.6
2017-04-01T08:59:08.742Z,32.6
2017-04-01T09:00:08.873Z,32.7
2017-04-01T09:01:08.752Z,32.7
2017-04-01T09:02:08.903Z,32.6
2017-04-01T09:03:07.422Z,32.6
2017-04-01T09:04:09.006Z,32.6
2017-04-01T09:05:07.393Z,32.6
2017-04-01T09:06:07.647Z,32.6
2017-04-01T09:07:09.011Z,32.6
2017-04-01T09:08:07.529Z,32.5
2017-04-01T09:09:09.087Z,32.5
2017-04-01T09:10:09.157Z,32.4
2017-04-01T09:11:09.342Z,32.4
2017-04-01T09:12:07.919Z,32.4
2017-04-01T09:13:07.811Z,32.4
2017-04-01T09:14:09.376Z,32.4
2017-04-01T09:15:07.803Z,32.4
2017-04-01T09:16:09.484Z,32.3
2017-04-01T09:17:09.473Z,32.4
2017-04-01T09:18:08.283Z,32.4
2017-04-01T09:19:09.640Z,32.3
2017-04-01T09:20:09.586Z,32.3
2017-04-01T09:21:08.027Z,32.3
2017-04-01T09:22:08.152Z,32.3
2017-04-01T09:23:09.832Z,32.3
2017-04-01T09:24:08.568Z,32.2
2017-04-01T09:25:10.051Z,32.2
2017-04-01T09:26:10.040Z,32.2
2017-04-01T09:27:08.396Z,32.2
2017-04-01T09:28:10.025Z,32.2
2017-04-01T09:29:10.157Z,32.2
2017-04-01T09:30:10.348Z,32.3
2017-04-01T09:31:08.804Z,32.3
2017-04-01T09:32:08.759Z,32.4
2017-04-01T09:33:08.746Z,32.4
2017-04-01T09:34:09.524Z,32.4
2017-04-01T09:35:10.406Z,32.4
2017-04-01T09:36:09.178Z,32.5
2017-04-01T09:37:08.976Z,32.5
2017-04-01T09:38:11.317Z,32.5
2017-04-01T09:39:10.853Z,32.5
2017-04-01T09:40:09.268Z,32.6
2017-04-01T09:41:09.301Z,32.6
2017-04-01T09:42:11.455Z,32.7
2017-04-01T09:43:09.463Z,32.7
2017-04-01T09:44:10.961Z,32.8
2017-04-01T09:45:10.984Z,32.8
2017-04-01T09:46:11.193Z,32.9
2017-04-01T09:47:11.110Z,32.9
2017-04-01T09:48:09.668Z,33
2017-04-01T09:49:11.268Z,33
2017-04-01T09:50:11.801Z,33.1
2017-04-01T09:51:09.781Z,33.1
2017-04-01T09:52:09.805Z,33.1
2017-04-01T09:53:09.812Z,33.1
2017-04-01T09:54:11.557Z,33.2
2017-04-01T09:55:09.898Z,33.2
2017-04-01T09:56:11.581Z,33.2
2017-04-01T09:57:11.677Z,33.2
2017-04-01T09:58:10.186Z,33.2
2017-04-01T09:59:11.823Z,33.3
2017-04-01T10:00:12.173Z,33.3
2017-04-01T10:01:10.182Z,33.3
2017-04-01T10:02:12.028Z,33.3
2017-04-01T10:03:12.074Z,33.3
2017-04-01T10:04:10.461Z,33.4
2017-04-01T10:05:10.734Z,33.4
2017-04-01T10:06:12.423Z,33.4
2017-04-01T10:07:12.346Z,33.4
2017-04-01T10:08:10.649Z,33.5
2017-04-01T10:09:10.844Z,33.5
2017-04-01T10:10:13.050Z,33.5
2017-04-01T10:11:12.440Z,33.5
2017-04-01T10:12:12.746Z,33.5
2017-04-01T10:13:11.054Z,33.5
2017-04-01T10:14:11.769Z,33.5
2017-04-01T10:15:12.770Z,33.5
2017-04-01T10:16:11.154Z,33.5
2017-04-01T10:17:11.383Z,33.5
2017-04-01T10:18:12.960Z,33.5
2017-04-01T10:19:12.957Z,33.5
2017-04-01T10:20:12.919Z,33.5
2017-04-01T10:21:11.323Z,33.5
2017-04-01T10:22:13.131Z,33.5
2017-04-01T10:23:13.393Z,33.6
2017-04-01T10:24:13.286Z,33.6
2017-04-01T10:25:11.652Z,33.5
2017-04-01T10:26:11.641Z,33.5
2017-04-01T10:27:11.655Z,33.4
2017-04-01T10:28:11.710Z,33.3
2017-04-01T10:29:13.510Z,33.2
2017-04-01T10:30:11.681Z,33.1
2017-04-01T10:31:11.843Z,33
2017-04-01T10:32:13.386Z,32.9
2017-04-01T10:33:11.841Z,32.8
2017-04-01T10:34:13.516Z,32.7
2017-04-01T10:35:12.068Z,32.7
2017-04-01T10:36:13.586Z,32.6
2017-04-01T10:37:13.588Z,32.6
2017-04-01T10:38:12.004Z,32.6
2017-04-01T10:39:12.070Z,32.5
2017-04-01T10:40:12.065Z,32.5
2017-04-01T10:41:13.880Z,32.5
2017-04-01T10:42:12.138Z,32.4
2017-04-01T10:43:12.272Z,32.4
2017-04-01T10:44:12.297Z,32.4
2017-04-01T10:45:12.152Z,32.3
2017-04-01T10:46:13.932Z,32.3
2017-04-01T10:47:14.149Z,32.3
2017-04-01T10:48:12.372Z,32.3
2017-04-01T10:49:14.154Z,32.3
2017-04-01T10:50:12.403Z,32.2
2017-04-01T10:51:12.637Z,32.2
2017-04-01T10:52:12.590Z,32.2
2017-04-01T10:53:14.413Z,32.2
2017-04-01T10:54:12.836Z,32.2
2017-04-01T10:55:12.848Z,32.2
2017-04-01T10:56:12.920Z,32.2
2017-04-01T10:57:14.478Z,32.1
2017-04-01T10:58:14.510Z,32.2
2017-04-01T10:59:13.071Z,32.1
2017-04-01T11:00:14.656Z,32.1
2017-04-01T11:01:13.115Z,32.1
2017-04-01T11:02:13.003Z,32.1
2017-04-01T11:03:13.100Z,32.1
2017-04-01T11:04:13.265Z,32.1
2017-04-01T11:05:15.110Z,32.1
2017-04-01T11:06:14.881Z,32.1
2017-04-01T11:07:14.952Z,32.1
2017-04-01T11:08:13.459Z,32.1
2017-04-01T11:09:13.472Z,32.1
2017-04-01T11:10:15.065Z,32
2017-04-01T11:11:13.690Z,32
2017-04-01T11:12:13.385Z,32
2017-04-01T11:13:15.206Z,32
2017-04-01T11:14:13.634Z,32
2017-04-01T11:15:13.680Z,32
2017-04-01T11:16:13.666Z,32
2017-04-01T11:17:13.937Z,32
2017-04-01T11:18:13.837Z,32
2017-04-01T11:19:13.948Z,32
2017-04-01T11:20:13.890Z,32
2017-04-01T11:21:14.014Z,32
2017-04-01T11:22:15.607Z,32
2017-04-01T11:23:15.663Z,32
2017-04-01T11:24:14.264Z,31.9
2017-04-01T11:25:15.883Z,31.9
2017-04-01T11:26:15.797Z,31.9
2017-04-01T11:27:14.159Z,31.9
2017-04-01T11:28:14.358Z,31.9
2017-04-01T11:29:14.343Z,31.9
2017-04-01T11:30:15.983Z,31.9
2017-04-01T11:31:14.521Z,31.9
2017-04-01T11:32:16.118Z,31.9
2017-04-01T11:33:16.113Z,31.9
2017-04-01T11:34:14.494Z,31.9
2017-04-01T11:35:14.519Z,31.9
2017-04-01T11:36:14.669Z,31.9
2017-04-01T11:37:14.770Z,31.9
2017-04-01T11:38:16.442Z,31.9
2017-04-01T11:39:14.836Z,31.9
2017-04-01T11:40:16.473Z,31.8
2017-04-01T11:41:15.089Z,31.9
2017-04-01T11:42:14.993Z,31.9
2017-04-01T11:43:16.707Z,31.9
2017-04-01T11:44:15.170Z,31.9
2017-04-01T11:45:16.654Z,31.9
2017-04-01T11:46:16.882Z,31.7
2017-04-01T11:47:16.888Z,31.9
2017-04-01T11:48:15.260Z,31.8
2017-04-01T11:49:16.933Z,31.8
2017-04-01T11:50:17.019Z,31.8
2017-04-01T11:51:17.110Z,31.8
2017-04-01T11:52:17.208Z,31.8
2017-04-01T11:53:15.716Z,31.8
2017-04-01T11:54:17.258Z,31.8
2017-04-01T11:55:17.237Z,31.8
2017-04-01T11:56:15.818Z,31.8
2017-04-01T11:57:17.484Z,31.8
2017-04-01T11:58:17.579Z,31.8
2017-04-01T11:59:15.950Z,31.8
2017-04-01T12:00:16.061Z,31.8
2017-04-01T12:01:16.003Z,31.8
2017-04-01T12:02:16.173Z,31.8
2017-04-01T12:03:17.698Z,31.8
2017-04-01T12:04:16.183Z,31.8
2017-04-01T12:05:17.932Z,31.8
2017-04-01T12:06:16.355Z,31.8
2017-04-01T12:07:16.481Z,31.8
2017-04-01T12:08:16.481Z,31.8
2017-04-01T12:09:16.553Z,31.8
2017-04-01T12:10:16.488Z,31.8
2017-04-01T12:11:18.227Z,31.8
2017-04-01T12:12:18.162Z,31.8
2017-04-01T12:13:18.301Z,31.8
2017-04-01T12:14:18.327Z,31.7
2017-04-01T12:15:16.597Z,31.8
2017-04-01T12:16:18.401Z,31.7
2017-04-01T12:17:16.807Z,31.7
2017-04-01T12:18:18.465Z,31.7
2017-04-01T12:19:16.962Z,31.7
2017-04-01T12:20:18.566Z,31.7
2017-04-01T12:21:16.990Z,31.7
2017-04-01T12:22:18.742Z,31.7
2017-04-01T12:23:17.111Z,31.7
2017-04-01T12:24:18.929Z,31.6
2017-04-01T12:25:18.909Z,31.6
2017-04-01T12:26:18.967Z,31.6
2017-04-01T12:27:19.076Z,31.6
2017-04-01T12:28:17.545Z,31.6
2017-04-01T12:29:19.190Z,31.6
2017-04-01T12:30:19.288Z,31.5
2017-04-01T12:31:19.254Z,31.6
2017-04-01T12:32:19.294Z,31.6
2017-04-01T12:33:17.634Z,31.6
2017-04-01T12:34:17.833Z,31.6
2017-04-01T12:35:19.502Z,31.5
2017-04-01T12:36:17.780Z,31.5
2017-04-01T12:37:17.920Z,31.5
2017-04-01T12:38:19.512Z,31.5
2017-04-01T12:39:19.489Z,31.5
2017-04-01T12:40:19.560Z,31.5
2017-04-01T12:41:18.080Z,31.5
2017-04-01T12:42:18.197Z,31.5
2017-04-01T12:43:19.763Z,31.5
2017-04-01T12:44:19.943Z,31.5
2017-04-01T12:45:18.234Z,31.5
2017-04-01T12:46:18.439Z,31.5
2017-04-01T12:47:18.405Z,31.5
2017-04-01T12:48:18.411Z,31.5
2017-04-01T12:49:18.596Z,31.5
2017-04-01T12:50:18.663Z,31.5
2017-04-01T12:51:20.297Z,31.5
2017-04-01T12:52:20.337Z,31.5
2017-04-01T12:53:20.378Z,31.5
2017-04-01T12:54:18.817Z,31.5
2017-04-01T12:55:18.859Z,31.5
2017-04-01T12:56:20.778Z,31.5
2017-04-01T12:57:19.073Z,31.5
2017-04-01T12:58:20.657Z,31.5
2017-04-01T12:59:19.142Z,31.5
2017-04-01T13:00:20.809Z,31.5
2017-04-01T13:01:20.819Z,31.5
2017-04-01T13:02:21.069Z,31.5
2017-04-01T13:03:19.243Z,31.5
2017-04-01T13:04:20.884Z,31.5
2017-04-01T13:05:19.394Z,31.5
2017-04-01T13:06:21.056Z,31.5
2017-04-01T13:07:21.155Z,31.5
2017-04-01T13:08:21.285Z,31.4
2017-04-01T13:09:19.648Z,31.5
2017-04-01T13:10:19.523Z,31.5
2017-04-01T13:11:19.604Z,31.4
2017-04-01T13:12:19.595Z,31.5
2017-04-01T13:13:21.281Z,31.5
2017-04-01T13:14:19.823Z,31.5
2017-04-01T13:15:21.268Z,31.5
2017-04-01T13:16:19.701Z,31.5
2017-04-01T13:17:19.884Z,31.5
2017-04-01T13:18:19.849Z,31.5
2017-04-01T13:19:21.474Z,31.5
2017-04-01T13:20:20.119Z,31.5
2017-04-01T13:21:21.588Z,31.5
2017-04-01T13:22:20.126Z,31.5
2017-04-01T13:23:20.111Z,31.5
2017-04-01T13:24:21.739Z,31.5
2017-04-01T13:25:21.809Z,31.6